• Join FlightAware (Why Join?)
  • Login
  • US Flag 
12:48PM EDT


 

Airport Tracker/Info


-or-


 

Live Flight TrackerFlight Track Log ✈ GJS3618 ✈ 01-Sep-2013 ✈ KOMA - KDEN

Flight Track Log - Related Links

Times and Time Zones

All times are in EDT time to prevent confusion due to time zone crossing. See the GJS3618 flight status page for this flight to view local times or setup timezone preferences in your user account.

Time Position Orientation Groundspeed Altitude Reporting Facility
EDT Latitude Longitude Course Direction KTS MPH feet Rate Location/Type
07:26AM 41.3144 -95.9006 270° West 159 183 1,400  Level Minneapolis Center
07:27AM 41.3406 -95.9169 335° Northwest 165 190 3,200 2,400 Climbing Minneapolis Center
07:28AM 41.3703 -95.9886 299° West 275 316 5,300 2,640 Climbing Minneapolis Center
07:29AM 41.3067 -96.2758 276° West  Level FlightAware Approximate
07:29AM 41.3731 -96.0881 272° West 265 305 8,800  Level Minneapolis Center
07:30AM 41.3159 -96.4062 275° West  Level FlightAware Approximate
07:30AM 41.3744 -96.1886 271° West 271 312 10,800  Level Minneapolis Center
07:31AM 41.3167 -96.5371 270° West  Level FlightAware Approximate
07:31AM 41.3753 -96.3025 271° West 304 350 12,300  Level Minneapolis Center
07:32AM 41.3767 -96.4250 271° West 328 377 14,000 1,620 Climbing Minneapolis Center
07:33AM 41.3769 -96.5533 270° West 343 395 15,600 1,680 Climbing Minneapolis Center
07:34AM 41.3781 -96.6878 271° West 360 414 17,400 1,620 Climbing Minneapolis Center
07:35AM 41.3786 -96.8233 270° West 365 420 18,900 1,440 Climbing Minneapolis Center
07:36AM 41.3800 -96.9628 271° West 373 429 20,400 1,500 Climbing Minneapolis Center
07:37AM 41.3797 -97.1042 270° West 379 436 22,000 1,440 Climbing Minneapolis Center
07:38AM 41.3800 -97.2447 270° West 381 438 23,400 1,200 Climbing Minneapolis Center
07:39AM 41.3758 -97.3883 268° West 386 444 24,500 1,140 Climbing Minneapolis Center
07:40AM 41.3497 -97.5331 257° West 397 457 25,700 1,140 Climbing Minneapolis Center
07:41AM 41.3247 -97.6750 257° West 405 466 26,800 1,140 Climbing Minneapolis Center
07:42AM 41.3003 -97.8247 258° West 412 474 28,000 1,140 Climbing Minneapolis Center
07:43AM 41.2753 -97.9722 257° West 411 473 29,100 1,140 Climbing Minneapolis Center
07:44AM 41.2503 -98.1203 257° West 410 472 30,300 1,080 Climbing Minneapolis Center
07:45AM 41.2250 -98.2678 257° West 410 472 31,300 900 Climbing Minneapolis Center
07:46AM 41.1992 -98.4167 257° West 412 474 32,200 900 Climbing Minneapolis Center
07:47AM 41.1725 -98.5697 257° West 412 474 33,200 840 Climbing Minneapolis Center
07:48AM 41.1467 -98.7183 257° West 413 475 33,900 720 Climbing Minneapolis Center
07:49AM 41.1197 -98.8697 257° West 419 482 34,700 840 Climbing Minneapolis Center
07:50AM 41.0922 -99.0225 257° West 423 487 35,600 840 Climbing Minneapolis Center
07:51AM 41.0653 -99.1772 257° West 407 468 36,500 780 Climbing Minneapolis Center
07:52AM 41.0392 -99.3206 256° West 401 461 37,200 480 Climbing Minneapolis Center
07:53AM 41.0136 -99.4650 257° West 402 463 37,500 300 Climbing Minneapolis Center
07:54AM 40.9903 -99.6097 258° West 403 464 37,900 240 Climbing Minneapolis Center
07:55AM 40.9658 -99.7558 258° West 405 466 38,000  Climbing Minneapolis Center
07:56AM 40.9403 -99.9044 257° West 410 472 38,000  Level Minneapolis Center
07:57AM 40.9122 -100.0692 257° West 414 476 38,000  Level Denver Center
07:58AM 40.8872 -100.2133 257° West 418 481 38,000  Level Denver Center
07:59AM 40.8583 -100.3797 257° West 419 482 38,000  Level Denver Center
08:00AM 40.8333 -100.5231 257° West 417 480 38,000  Level Denver Center
08:01AM 40.8050 -100.6644 255° West 412 474 38,000  Level Denver Center
08:02AM 40.7781 -100.8258 258° West 442 509 38,000  Level Denver Center
08:03AM 40.7544 -100.9678 258° West 423 487 38,000  Level Denver Center
08:04AM 40.7247 -101.1358 257° West 421 484 38,000  Level Denver Center
08:05AM 40.6989 -101.2800 257° West 422 486 38,000  Level Denver Center
08:06AM 40.6725 -101.4242 256° West 423 487 38,000  Level Denver Center
08:07AM 40.6458 -101.5683 256° West 423 487 38,000  Level Denver Center
08:08AM 40.6150 -101.7375 257° West 425 489 38,000  Level Denver Center
08:09AM 40.5875 -101.8817 256° West 426 490 38,000 -240 Level Denver Center
08:10AM 40.5589 -102.0253 255° West 426 490 37,600 -1,080 Descending Denver Center
08:11AM 40.5281 -102.1933 256° West 424 488 35,900 -1,620 Descending Denver Center
08:12AM 40.4992 -102.3350 255° West 421 484 34,400 -1,500 Descending Denver Center
08:13AM 40.4725 -102.4753 256° West 415 478 33,000 -1,500 Descending Denver Center
08:14AM 40.4461 -102.6131 256° West 409 471 31,500 -1,560 Descending Denver Center
08:15AM 40.4158 -102.7736 256° West 406 467 29,900 -1,620 Descending Denver Center
08:16AM 40.3881 -102.9142 255° West 400 460 28,300 -1,560 Descending Denver Center
08:17AM 40.3592 -103.0556 255° West 402 463 26,800 -1,500 Descending Denver Center
08:18AM 40.3317 -103.1936 255° West 394 453 25,300 -1,500 Descending Denver Center
08:19AM 40.3047 -103.3306 256° West 391 450 23,800 -1,500 Descending Denver Center
08:20AM 40.2772 -103.4697 256° West 395 455 22,300 -1,440 Descending Denver Center
08:21AM 40.2492 -103.6050 255° West 388 447 21,000 -1,080 Descending Denver Center
08:22AM 40.2222 -103.7358 255° West 382 440 20,200 -600 Descending Denver Center
08:23AM 40.1950 -103.8681 255° West 380 437 19,800 -900 Descending Denver Center
08:24AM 40.1397 -103.9831 238° Southwest 374 430 18,500 -1,620 Descending Denver Center
08:25AM 40.0853 -104.1025 239° Southwest 355 409 16,600 -1,740 Descending Denver Center
08:26AM 40.0339 -104.2106 238° Southwest 353 406 15,100 -1,500 Descending Denver Center
08:27AM 39.9864 -104.3136 239° Southwest 334 384 13,600 -1,140 Descending Denver Center
08:28AM 39.9500 -104.4000 241° Southwest 307 353 13,000 -900 Descending Denver TRACON
08:29AM 39.9000 -104.4833 232° Southwest 304 350 12,100 -1,080 Descending Denver TRACON
08:30AM 39.8333 -104.5000 191° South 294 338 11,000 -600 Descending Denver TRACON
08:31AM 39.7500 -104.5000 180° South 257 296 11,000 -660 Level Denver TRACON
08:32AM 39.6833 -104.5167 191° South 256 295 9,700 -900 Descending Denver TRACON
08:33AM 39.6167 -104.5333 191° South 236 272 9,300 -780 Descending Denver TRACON
08:34AM 39.6000 -104.6000 252° West 221 254 8,300 -660 Descending Denver TRACON
08:35AM 39.6500 -104.6500 322° Northwest 223 257 8,100 -240 Descending Denver TRACON
08:36AM 39.7000 -104.6500 360° North 206 237 7,900 -720 Descending Denver TRACON
08:37AM 39.7667 -104.6500 360° North 194 223 6,700 -1,080 Descending Denver TRACON
08:37AM 39.7892 -104.6422 15° North 169 194 6,200 -780 Descending Denver Center
08:38AM 39.8286 -104.6411 North 145 167 5,500 -720 Descending Denver Center